Amite, Louisiana
Current Conditions -  °F | °C
As of 9:55 AM on Friday 31 Oct 2014 (Local Time) from KHDC Reporting Station
Clear Clear  
Wind Chill: 19°   Ceiling: Unl
Heat Index: 19°   Visibility: 10mi
Dew Point:   Wind: 8mph
Humidity: 49%   Direction: 330°NNW
Pressure: 30.08"   Gusts: NA
Location:  30.73°N, 90.51°W
Report Text: KHDC 311455Z AUTO 33007KT 10SM CLR 19/08 A3008 RMK AO2
Loading
Personal Weather Stations






























Interactive Weather Map
Tropical Storm Tracking
New forecast layout! Learn more

10-Day Weather Forecast

Advertisements
Track Severe Weather on mobile